logo
Search for airport 
image banner adimage banner adimage banner ad
image banner ad

SGELCI - Estancia Laguna Ciervo

Located in San Nicolas, Paraguay

ICAO - , IATA -

Data provided by Airmate  

General information

Coordinates: S22°19'52" W56°11'47"
Elevation is 1022 feet MSL.
Magnetic variation is -17° East
View others Airports in Amambay Department

Operational data

Special qualification required
Current time UTC:
Current local time:
Weather at : SBPP - Ponta Pora ( 56 km )
TAF: TAF SBPP 250430Z 2506/2606 21005KT 5000 BR BKN010 TN17/2508Z TX25/2517Z BECMG 2510/2512 01003KT 8000 NSW BKN020 BECMG 2513/2515 33004KT 9999 FEW030 BECMG 2519/2521 26004KT CAVOK BECMG 2522/2524 23004KT 8000 SCT020 BECMG 2601/2603 5000 BR BKN008 RMK PGL
View NOTAMs / SUP AIP / TFR affecting this airport [VIEW]
Communications frequencies: [VIEW]

Runways:

RWY identifierQFULength (ft)Width (ft)SurfaceLDA (ft)
01352°357958DIRT
19172°357958DIRT

Airport contact information

Address: San Nicolas Paraguay

Satellite view of SGELCI